Hlavní strana
METAR-TAF:

METAR-TAF

Letiště :

Altenburg, Německo

Letiště Altenburg-Nobitz

zeměpisná šířka: 50-58N, zeměpisná délka: 012-30E, výška: 195 m

Aktuální stav počasí

Zpráva byla vytvořena před 14 minutami, v 13:50 UTC
Východoseverovýchodní vítr 11 kt, proměnlivý mezi severoseverovýchodním a východojihovýchodním
Teplota 0°C
Vlhkost vzduchu 40%
Tlak 1026 hPa
Viditelnost 10 km a více
Skoro jasno ve výšce 4800 ft

METAR: EDAC 241350Z 07011KT 030V110 9999 FEW048 M00/M12 Q1026

Čas: 15:04 (14:04 UTC)

Předpověď počasí

Zpráva byla vytvořena před 3 hodinami a 4 minutami, v 11:00 UTC
Předpověď platná od 24 v 12 UTC do 24 v 21 UTC
Východoseverovýchodní vítr 10 kt
Viditelnost 10 km a více
Polojasno ve výšce 2000 ft
Dočasný
od 24 v 12 UTC do 24 v 15 UTC
Severovýchodní vítr 15 kt s nárazy do 25 kt

TAF: EDAC 241100Z 2412/2421 06010KT 9999 SCT020 TEMPO 2412/2415 05015G25KT

Stav a předpovědi počasí z více než 4 000 letišť (zprávy METAR a TAF).

Červené a žluté tečky na mapě představují dostupné meteorologické stanice.

Když kurzor umístíte na tečku, zobrazí se název stanice.

Pak kliknutím zobrazíte stav a předpověď počasí.

Chcete-li změnit mapu, kliknutím na zelené tlačítko se znaménkem +mapu přiblížíte, kliknutím na zelené tlačítko se znaménkem – mapu oddálíte a kliknutím na zelené šipky přejdete na sousední mapy.


METAR-TAF: